Time;durP1;ratioP1;P1;durP2;ratioP2;P2;SDS_P1;SDS_P2;PMS_P1;PMS_P2;Temp;Humidity;BMP_temperature;BMP_pressure;BME280_temperature;BME280_humidity;BME280_pressure;Samples;Min_cycle;Max_cycle;Signal;HPM_P1;HPM_P2
2022/11/13 00:00:26;;;;;;;9.65;7.00;;;8.80;99.90;;;;;;2070023;28;20022;-70
2022/11/13 00:01:26;;;;;;;9.68;7.32;;;8.80;99.90;;;;;;2069368;28;20033;-70
2022/11/13 00:02:27;;;;;;;11.88;7.90;;;8.80;99.90;;;;;;2068298;28;20196;-70
2022/11/13 00:03:28;;;;;;;9.25;7.57;;;8.80;99.90;;;;;;2068831;28;20019;-70
2022/11/13 00:04:28;;;;;;;9.65;7.90;;;8.80;99.90;;;;;;2070250;28;20104;-71
2022/11/13 00:05:29;;;;;;;14.85;8.27;;;8.80;99.90;;;;;;2070193;28;20029;-71
2022/11/13 00:06:29;;;;;;;8.95;7.72;;;8.80;99.90;;;;;;2069071;28;20026;-71
2022/11/13 00:07:30;;;;;;;9.48;7.40;;;8.80;99.90;;;;;;2070181;28;20084;-71
2022/11/13 00:08:31;;;;;;;8.68;7.75;;;8.80;99.90;;;;;;2069409;28;20030;-71
2022/11/13 00:09:31;;;;;;;10.35;8.40;;;8.80;99.90;;;;;;2069358;28;20030;-71
2022/11/13 00:10:31;;;;;;;10.85;8.15;;;8.80;99.90;;;;;;2069063;28;20050;-71
2022/11/13 00:11:32;;;;;;;10.05;8.63;;;8.80;99.90;;;;;;2068433;28;20026;-71
2022/11/13 00:12:33;;;;;;;9.32;7.72;;;8.80;99.90;;;;;;2069118;28;20037;-71
2022/11/13 00:13:33;;;;;;;9.93;8.13;;;8.80;99.90;;;;;;2070261;28;20033;-71
2022/11/13 00:14:34;;;;;;;9.10;7.82;;;8.80;99.90;;;;;;2070243;28;20121;-71
2022/11/13 00:15:34;;;;;;;9.15;7.50;;;8.80;99.90;;;;;;2070251;28;20587;-71
2022/11/13 00:16:35;;;;;;;10.60;8.07;;;8.80;99.90;;;;;;2070695;28;20390;-71
2022/11/13 00:17:35;;;;;;;10.93;7.47;;;8.80;99.90;;;;;;2070032;28;20506;-71
2022/11/13 00:18:37;;;;;;;8.32;7.03;;;8.80;99.90;;;;;;2069635;28;20492;-71
2022/11/13 00:19:37;;;;;;;10.43;8.23;;;8.80;99.90;;;;;;2070081;28;20029;-71
2022/11/13 00:20:38;;;;;;;10.10;7.50;;;8.80;99.90;;;;;;2069887;28;20025;-71
2022/11/13 00:21:38;;;;;;;8.50;7.50;;;8.70;99.90;;;;;;2070266;28;20537;-70
2022/11/13 00:22:39;;;;;;;10.15;7.68;;;8.70;99.90;;;;;;2070835;28;20030;-70
2022/11/13 00:23:39;;;;;;;9.80;7.40;;;8.70;99.90;;;;;;2070131;28;20022;-70
2022/11/13 00:24:40;;;;;;;8.98;7.70;;;8.70;99.90;;;;;;2067887;28;20621;-70
2022/11/13 00:25:40;;;;;;;10.80;7.60;;;8.70;99.90;;;;;;2069963;28;20026;-70
2022/11/13 00:26:41;;;;;;;8.30;7.18;;;8.70;99.90;;;;;;2069746;28;20018;-70
2022/11/13 00:27:42;;;;;;;8.65;7.43;;;8.70;99.90;;;;;;2069874;28;20018;-70
2022/11/13 00:28:43;;;;;;;12.07;7.85;;;8.70;99.90;;;;;;2071007;28;20029;-70
2022/11/13 00:29:44;;;;;;;8.13;7.32;;;8.70;99.90;;;;;;2069937;28;20026;-70
2022/11/13 00:30:44;;;;;;;10.73;7.75;;;8.70;99.90;;;;;;2070815;28;20112;-70
2022/11/13 00:31:45;;;;;;;9.82;7.40;;;8.70;99.90;;;;;;2069146;28;20030;-70
2022/11/13 00:32:45;;;;;;;9.02;7.63;;;8.70;99.90;;;;;;2069497;28;20397;-70
2022/11/13 00:33:46;;;;;;;10.57;8.15;;;8.70;99.90;;;;;;2076007;28;20068;-71
2022/11/13 00:34:46;;;;;;;8.57;7.53;;;8.70;99.90;;;;;;2077199;28;20029;-71
2022/11/13 00:35:47;;;;;;;9.40;7.82;;;8.70;99.90;;;;;;2069739;28;20038;-71
2022/11/13 00:36:47;;;;;;;10.10;8.32;;;8.70;99.90;;;;;;2070139;28;20048;-71
2022/11/13 00:37:48;;;;;;;9.07;7.50;;;8.70;99.90;;;;;;2069618;28;20034;-71
2022/11/13 00:38:49;;;;;;;10.07;8.13;;;8.60;99.90;;;;;;2069328;28;20054;-71
2022/11/13 00:39:49;;;;;;;8.75;7.35;;;8.60;99.90;;;;;;2069444;28;20034;-70
2022/11/13 00:40:49;;;;;;;9.68;8.10;;;8.60;99.90;;;;;;2068803;28;20489;-70
2022/11/13 00:41:50;;;;;;;7.78;6.97;;;8.60;99.90;;;;;;2069465;28;20032;-70
2022/11/13 00:42:50;;;;;;;7.70;6.90;;;8.60;99.90;;;;;;2070367;28;20176;-70
2022/11/13 00:43:51;;;;;;;8.88;7.20;;;8.60;99.90;;;;;;2070006;28;20386;-70
2022/11/13 00:44:52;;;;;;;8.32;7.43;;;8.60;99.90;;;;;;2070208;28;20539;-70
2022/11/13 00:45:52;;;;;;;11.40;7.30;;;8.60;99.90;;;;;;2068677;28;20046;-70
2022/11/13 00:46:53;;;;;;;11.63;7.95;;;8.60;99.90;;;;;;2068672;28;20026;-70
2022/11/13 00:47:53;;;;;;;9.25;7.57;;;8.60;99.90;;;;;;2070019;28;20387;-70
2022/11/13 00:48:54;;;;;;;9.68;7.30;;;8.60;99.90;;;;;;2069832;28;20409;-70
2022/11/13 00:49:54;;;;;;;7.93;6.75;;;8.60;99.90;;;;;;2069417;28;20022;-70
2022/11/13 00:50:55;;;;;;;9.70;7.28;;;8.50;99.90;;;;;;2069653;28;20572;-70
2022/11/13 00:51:55;;;;;;;8.52;7.15;;;8.60;99.90;;;;;;2070529;28;20434;-70
2022/11/13 00:52:56;;;;;;;9.52;7.13;;;8.50;99.90;;;;;;2069495;28;20014;-70
2022/11/13 00:53:56;;;;;;;8.15;7.32;;;8.60;99.90;;;;;;2068199;28;20026;-71
2022/11/13 00:54:57;;;;;;;9.40;7.13;;;8.50;99.90;;;;;;2069354;28;20029;-71
2022/11/13 00:55:59;;;;;;;8.93;7.15;;;8.60;99.90;;;;;;2070486;28;20022;-71
2022/11/13 00:56:59;;;;;;;9.77;7.38;;;8.50;99.90;;;;;;2069533;28;20033;-71
2022/11/13 00:58:00;;;;;;;8.93;7.05;;;8.50;99.90;;;;;;2069146;28;20065;-70
2022/11/13 00:59:00;;;;;;;9.05;7.30;;;8.50;99.90;;;;;;2069315;28;20026;-70
2022/11/13 01:00:02;;;;;;;8.55;7.03;;;8.50;99.90;;;;;;2068885;28;20909;-70
2022/11/13 01:01:10;;;;;;;7.82;6.30;;;8.50;99.90;;;;;;2068844;28;20022;-70
2022/11/13 01:02:14;;;;;;;8.57;7.38;;;8.50;99.90;;;;;;2067362;28;20029;-70
2022/11/13 01:03:16;;;;;;;8.27;7.45;;;8.50;99.90;;;;;;2069383;28;20484;-70
2022/11/13 01:04:16;;;;;;;9.88;7.07;;;8.50;99.90;;;;;;2068338;28;20032;-70
2022/11/13 01:05:17;;;;;;;9.15;7.30;;;8.50;99.90;;;;;;2068937;28;20022;-70
2022/11/13 01:06:26;;;;;;;9.07;7.40;;;8.50;99.90;;;;;;2068965;28;20018;-71
2022/11/13 01:07:26;;;;;;;8.48;7.25;;;8.50;99.90;;;;;;2069469;28;20112;-70
2022/11/13 01:08:27;;;;;;;8.25;7.28;;;8.50;99.90;;;;;;2069155;28;20033;-71
2022/11/13 01:09:27;;;;;;;10.82;7.35;;;8.50;99.90;;;;;;2068208;28;20045;-71
2022/11/13 01:10:28;;;;;;;8.63;7.28;;;8.50;99.90;;;;;;2070249;28;20051;-71
2022/11/13 01:11:29;;;;;;;8.30;7.05;;;8.50;99.90;;;;;;2069550;28;20124;-71
2022/11/13 01:12:30;;;;;;;8.88;7.05;;;8.40;99.90;;;;;;2068989;28;20101;-71
2022/11/13 01:13:30;;;;;;;7.47;6.72;;;8.50;99.90;;;;;;2068061;28;20030;-71
2022/11/13 01:14:31;;;;;;;8.00;7.05;;;8.40;99.90;;;;;;2068431;28;20034;-70
2022/11/13 01:15:32;;;;;;;8.90;7.20;;;8.40;99.90;;;;;;2070031;28;20048;-70
2022/11/13 01:16:32;;;;;;;9.85;8.15;;;8.40;99.90;;;;;;2068810;28;20600;-70
2022/11/13 01:17:33;;;;;;;11.10;8.02;;;8.40;99.90;;;;;;2070219;28;20072;-70
2022/11/13 01:18:34;;;;;;;10.55;7.45;;;8.40;99.90;;;;;;2069028;28;20034;-70
2022/11/13 01:19:35;;;;;;;9.95;7.63;;;8.40;99.90;;;;;;2068899;28;20061;-70
2022/11/13 01:20:35;;;;;;;7.95;6.75;;;8.40;99.90;;;;;;2068959;28;20025;-70
2022/11/13 01:21:36;;;;;;;8.43;6.88;;;8.40;99.90;;;;;;2068703;28;20066;-70
2022/11/13 01:22:36;;;;;;;8.63;7.72;;;8.40;99.90;;;;;;2068324;28;20850;-70
2022/11/13 01:23:37;;;;;;;10.30;7.85;;;8.40;99.90;;;;;;2068853;28;20037;-70
2022/11/13 01:24:38;;;;;;;10.05;8.07;;;8.40;99.90;;;;;;2067684;28;20024;-70
2022/11/13 01:25:38;;;;;;;10.57;9.05;;;8.40;99.90;;;;;;2068727;28;20128;-70
2022/11/13 01:26:39;;;;;;;12.27;9.90;;;8.40;99.90;;;;;;2068723;28;20026;-70
2022/11/13 01:27:39;;;;;;;10.98;9.75;;;8.30;99.90;;;;;;2068772;28;20026;-70
2022/11/13 01:28:41;;;;;;;10.93;8.95;;;8.40;99.90;;;;;;2069267;28;20032;-70
2022/11/13 01:29:42;;;;;;;10.25;8.13;;;8.40;99.90;;;;;;2067760;28;20108;-70
2022/11/13 01:30:42;;;;;;;11.35;8.52;;;8.30;99.90;;;;;;2068998;28;20037;-70
2022/11/13 01:31:43;;;;;;;9.30;8.30;;;8.30;99.90;;;;;;2066950;28;20037;-70
2022/11/13 01:32:43;;;;;;;11.88;8.38;;;8.30;99.90;;;;;;2070128;28;20034;-70
2022/11/13 01:33:45;;;;;;;11.85;9.90;;;8.30;99.90;;;;;;2068524;28;20108;-70
2022/11/13 01:34:46;;;;;;;10.95;8.95;;;8.30;99.90;;;;;;2069050;28;20042;-70
2022/11/13 01:35:46;;;;;;;10.90;8.60;;;8.30;99.90;;;;;;2069679;28;20544;-70
2022/11/13 01:36:47;;;;;;;11.02;9.18;;;8.30;99.90;;;;;;2068526;28;20053;-70
2022/11/13 01:37:47;;;;;;;10.88;9.52;;;8.30;99.90;;;;;;2067667;28;20032;-70
2022/11/13 01:38:49;;;;;;;10.23;9.10;;;8.30;99.90;;;;;;2068208;28;20154;-70
2022/11/13 01:39:50;;;;;;;11.45;9.20;;;8.30;99.90;;;;;;2069720;28;20030;-70
2022/11/13 01:40:50;;;;;;;13.35;10.00;;;8.30;99.90;;;;;;2069753;28;20114;-70
2022/11/13 01:41:51;;;;;;;13.88;9.85;;;8.30;99.90;;;;;;2068996;28;20185;-70
2022/11/13 01:42:51;;;;;;;11.80;9.55;;;8.30;99.90;;;;;;2067689;28;20048;-70
2022/11/13 01:43:53;;;;;;;13.43;9.85;;;8.30;99.90;;;;;;2068772;28;20088;-70
2022/11/13 01:44:59;;;;;;;12.60;9.75;;;8.30;99.90;;;;;;2068600;28;20465;-70
2022/11/13 01:46:20;;;;;;;12.18;9.77;;;8.30;99.90;;;;;;2068621;28;20042;-70
2022/11/13 01:47:22;;;;;;;11.38;8.98;;;8.30;99.90;;;;;;2069870;28;20030;-70
2022/11/13 01:48:27;;;;;;;13.13;9.45;;;8.30;99.90;;;;;;2068493;28;20104;-70
2022/11/13 01:49:35;;;;;;;11.18;9.95;;;8.30;99.90;;;;;;2069397;28;20370;-70
2022/11/13 01:50:36;;;;;;;13.27;10.02;;;8.30;99.90;;;;;;2069255;28;20470;-70
2022/11/13 01:51:48;;;;;;;9.88;8.75;;;8.20;99.90;;;;;;2068874;28;22256;-70
2022/11/13 01:52:48;;;;;;;11.63;9.18;;;8.20;99.90;;;;;;2069878;28;20034;-70
2022/11/13 01:53:49;;;;;;;13.07;9.35;;;8.20;99.90;;;;;;2068434;28;20095;-70
2022/11/13 01:54:57;;;;;;;12.13;9.70;;;8.20;99.90;;;;;;2069709;28;20129;-70
2022/11/13 01:55:58;;;;;;;12.25;9.45;;;8.20;99.90;;;;;;2065225;28;20482;-70
2022/11/13 01:56:59;;;;;;;13.13;10.32;;;8.20;99.90;;;;;;2066467;28;20564;-70
2022/11/13 01:58:02;;;;;;;12.18;10.38;;;8.20;99.90;;;;;;2069839;28;20017;-70
2022/11/13 01:59:11;;;;;;;13.32;9.48;;;8.20;99.90;;;;;;2069519;28;20501;-70
2022/11/13 02:00:12;;;;;;;12.38;9.45;;;8.20;99.90;;;;;;2069448;28;20029;-70
2022/11/13 02:01:12;;;;;;;12.20;10.18;;;8.20;99.90;;;;;;2068369;28;20036;-70
2022/11/13 02:02:13;;;;;;;11.30;8.80;;;8.20;99.90;;;;;;2068054;28;20056;-69
2022/11/13 02:03:14;;;;;;;13.10;10.13;;;8.20;99.90;;;;;;2069301;28;20031;-69
2022/11/13 02:04:14;;;;;;;12.13;9.98;;;8.10;99.90;;;;;;2068176;28;20026;-69
2022/11/13 02:05:15;;;;;;;11.88;9.80;;;8.10;99.90;;;;;;2068727;28;20033;-69
2022/11/13 02:06:16;;;;;;;11.52;9.60;;;8.10;99.90;;;;;;2068955;28;20116;-69
2022/11/13 02:07:19;;;;;;;13.77;10.73;;;8.10;99.90;;;;;;2069313;28;20088;-69
2022/11/13 02:08:20;;;;;;;11.18;9.57;;;8.10;99.90;;;;;;2066687;28;20033;-69
2022/11/13 02:09:26;;;;;;;12.85;10.40;;;8.10;99.90;;;;;;2069570;28;20724;-69
2022/11/13 02:10:27;;;;;;;13.93;11.00;;;8.10;99.90;;;;;;2067834;28;20481;-69
2022/11/13 02:11:27;;;;;;;10.90;9.32;;;8.10;99.90;;;;;;2069673;28;20442;-69
2022/11/13 02:12:41;;;;;;;13.38;10.48;;;8.10;99.90;;;;;;2076702;28;20025;-69
2022/11/13 02:13:43;;;;;;;13.85;11.32;;;8.10;99.90;;;;;;2074182;28;20030;-69
2022/11/13 02:14:52;;;;;;;11.73;10.52;;;8.10;99.90;;;;;;2067219;28;20390;-69
2022/11/13 02:15:54;;;;;;;13.52;11.32;;;8.10;99.90;;;;;;2070342;28;20032;-69
2022/11/13 02:16:59;;;;;;;13.20;10.82;;;8.10;99.90;;;;;;2072133;28;20032;-69
2022/11/13 02:18:01;;;;;;;11.68;10.43;;;8.10;99.90;;;;;;2072001;28;20111;-69
2022/11/13 02:19:08;;;;;;;13.13;10.95;;;8.00;99.90;;;;;;2069556;28;20034;-69
2022/11/13 02:20:10;;;;;;;15.32;10.95;;;8.00;99.90;;;;;;2070517;28;20804;-69
2022/11/13 02:21:40;;;;;;;12.07;10.70;;;8.00;99.90;;;;;;2071600;28;20037;-69
2022/11/13 02:22:49;;;;;;;;;;;8.00;99.90;;;;;;2070107;28;20041;-69
2022/11/13 02:23:56;;;;;;;12.70;9.90;;;7.90;99.90;;;;;;2069930;28;19905;-69
2022/11/13 02:25:00;;;;;;;12.30;10.27;;;7.90;99.90;;;;;;2071997;28;20576;-69
2022/11/13 02:26:02;;;;;;;13.60;10.70;;;7.90;99.90;;;;;;2070398;28;20542;-69
2022/11/13 02:27:10;;;;;;;13.07;10.50;;;7.90;99.90;;;;;;2069918;28;20057;-69
2022/11/13 02:28:10;;;;;;;14.48;11.80;;;7.90;99.90;;;;;;2070102;28;20416;-69
2022/11/13 02:29:11;;;;;;;13.00;10.55;;;7.90;99.90;;;;;;2070378;28;20045;-69
2022/11/13 02:30:24;;;;;;;12.15;10.57;;;7.90;99.90;;;;;;2071743;28;20068;-69
2022/11/13 02:31:25;;;;;;;14.23;10.77;;;7.90;99.90;;;;;;2071056;28;20743;-69
2022/11/13 02:32:25;;;;;;;13.13;10.13;;;7.90;99.90;;;;;;2067563;28;20053;-69
2022/11/13 02:33:29;;;;;;;19.00;11.55;;;7.90;99.90;;;;;;2070737;28;20026;-69
2022/11/13 02:34:30;;;;;;;14.60;10.65;;;7.90;99.90;;;;;;2070647;28;20018;-69
2022/11/13 02:35:34;;;;;;;11.63;10.38;;;7.90;99.90;;;;;;2071191;28;20026;-69
2022/11/13 02:36:35;;;;;;;15.02;11.35;;;7.90;99.90;;;;;;2069564;28;20030;-69
2022/11/13 02:37:36;;;;;;;12.93;9.60;;;7.80;99.90;;;;;;2070036;28;20092;-69
2022/11/13 02:38:39;;;;;;;13.70;11.07;;;7.80;99.90;;;;;;2070020;28;20045;-69
2022/11/13 02:39:39;;;;;;;13.35;10.50;;;7.80;99.90;;;;;;2071297;28;20085;-69
2022/11/13 02:40:40;;;;;;;14.35;10.45;;;7.80;99.90;;;;;;2071253;28;20156;-69
2022/11/13 02:41:40;;;;;;;13.68;9.98;;;7.80;99.90;;;;;;2070196;28;20021;-69
2022/11/13 02:42:41;;;;;;;13.30;10.82;;;7.70;99.90;;;;;;2071394;28;20030;-69
2022/11/13 02:43:42;;;;;;;14.38;11.38;;;7.80;99.90;;;;;;2069323;28;20034;-69
2022/11/13 02:44:42;;;;;;;14.43;11.13;;;7.80;99.90;;;;;;2070597;28;20680;-69
2022/11/13 02:45:43;;;;;;;14.85;10.65;;;7.70;99.90;;;;;;2071101;28;20021;-69
2022/11/13 02:46:43;;;;;;;13.50;11.18;;;7.70;99.90;;;;;;2070240;28;20030;-69
2022/11/13 02:47:44;;;;;;;16.90;11.70;;;7.70;99.90;;;;;;2071279;28;20056;-69
2022/11/13 02:48:44;;;;;;;12.82;11.00;;;7.70;99.90;;;;;;2070882;28;20034;-69
2022/11/13 02:49:45;;;;;;;12.95;11.43;;;7.70;99.90;;;;;;2071024;28;20041;-69
2022/11/13 02:50:46;;;;;;;13.80;10.75;;;7.70;99.90;;;;;;2071236;28;20056;-69
2022/11/13 02:51:46;;;;;;;15.32;10.77;;;7.70;99.90;;;;;;2069005;28;20394;-69
2022/11/13 02:52:47;;;;;;;16.63;12.65;;;7.70;99.90;;;;;;2071132;28;20049;-69
2022/11/13 02:53:48;;;;;;;14.70;11.25;;;7.70;99.90;;;;;;2069061;28;20057;-69
2022/11/13 02:54:48;;;;;;;12.90;10.98;;;7.70;99.90;;;;;;2071328;28;20120;-69
2022/11/13 02:55:49;;;;;;;15.25;12.60;;;7.70;99.90;;;;;;2069187;28;20026;-69
2022/11/13 02:56:49;;;;;;;14.25;10.77;;;7.70;99.90;;;;;;2069523;28;20030;-69
2022/11/13 02:57:50;;;;;;;16.55;12.45;;;7.70;99.90;;;;;;2070628;28;20025;-69
2022/11/13 02:58:50;;;;;;;13.52;10.90;;;7.60;99.90;;;;;;2071684;28;20036;-69
2022/11/13 02:59:51;;;;;;;14.35;10.05;;;7.70;99.90;;;;;;2068872;28;20493;-69
2022/11/13 03:00:51;;;;;;;15.50;11.05;;;7.60;99.90;;;;;;2069057;28;20522;-69
2022/11/13 03:01:52;;;;;;;14.68;11.68;;;7.60;99.90;;;;;;2067917;28;20029;-69
2022/11/13 03:02:52;;;;;;;13.23;11.55;;;7.60;99.90;;;;;;2068936;28;20122;-69
2022/11/13 03:03:53;;;;;;;14.68;11.85;;;7.60;99.90;;;;;;2069591;28;20029;-69
2022/11/13 03:04:53;;;;;;;14.93;10.70;;;7.60;99.90;;;;;;2068700;28;20030;-69
2022/11/13 03:05:54;;;;;;;14.38;11.13;;;7.60;99.90;;;;;;2070653;28;20484;-69
2022/11/13 03:06:54;;;;;;;14.27;11.15;;;7.60;99.90;;;;;;2071025;28;20022;-69
2022/11/13 03:07:55;;;;;;;15.10;11.43;;;7.60;99.90;;;;;;2071644;28;20084;-69
2022/11/13 03:08:56;;;;;;;14.43;12.63;;;7.60;99.90;;;;;;2070464;28;20024;-69
2022/11/13 03:09:56;;;;;;;14.68;11.98;;;7.60;99.90;;;;;;2070570;28;20026;-69
2022/11/13 03:10:57;;;;;;;15.30;11.98;;;7.60;99.90;;;;;;2068801;28;20056;-69
2022/11/13 03:11:58;;;;;;;16.02;12.30;;;7.60;99.90;;;;;;2070492;28;20602;-69
2022/11/13 03:12:58;;;;;;;14.75;11.52;;;7.60;99.90;;;;;;2070414;28;20053;-69
2022/11/13 03:13:59;;;;;;;13.55;10.73;;;7.50;99.90;;;;;;2070076;28;20026;-69
2022/11/13 03:15:00;;;;;;;12.32;11.00;;;7.50;99.90;;;;;;2069350;28;20724;-69
2022/11/13 03:16:12;;;;;;;14.82;11.82;;;7.50;99.90;;;;;;2070134;28;20371;-69
2022/11/13 03:17:13;;;;;;;13.88;11.45;;;7.50;99.90;;;;;;2069435;28;20019;-69
2022/11/13 03:18:13;;;;;;;16.50;11.45;;;7.50;99.90;;;;;;2069216;28;20041;-69
2022/11/13 03:19:14;;;;;;;12.90;10.40;;;7.50;99.90;;;;;;2069977;28;20026;-69
2022/11/13 03:20:15;;;;;;;12.77;10.65;;;7.50;99.90;;;;;;2070357;28;20122;-69
2022/11/13 03:21:15;;;;;;;11.82;10.35;;;7.50;99.90;;;;;;2070436;28;20029;-69
2022/11/13 03:22:16;;;;;;;11.45;10.25;;;7.50;99.90;;;;;;2069538;28;20064;-69
2022/11/13 03:23:16;;;;;;;13.60;11.70;;;7.50;99.90;;;;;;2070862;28;20026;-69
2022/11/13 03:24:17;;;;;;;15.75;11.75;;;7.50;99.90;;;;;;2070237;28;20028;-69
2022/11/13 03:25:17;;;;;;;12.02;10.60;;;7.50;99.90;;;;;;2070006;28;20058;-69
2022/11/13 03:26:18;;;;;;;16.30;11.30;;;7.50;99.90;;;;;;2068911;28;20037;-69
2022/11/13 03:27:19;;;;;;;11.73;10.52;;;7.50;99.90;;;;;;2070455;28;20482;-69
2022/11/13 03:28:19;;;;;;;13.40;10.90;;;7.40;99.90;;;;;;2068620;28;20061;-69
2022/11/13 03:29:20;;;;;;;16.58;11.57;;;7.40;99.90;;;;;;2069791;28;20034;-69
2022/11/13 03:30:21;;;;;;;12.43;10.38;;;7.40;99.90;;;;;;2067528;28;20030;-69
2022/11/13 03:31:21;;;;;;;14.13;11.75;;;7.40;99.90;;;;;;2068638;28;20113;-69
2022/11/13 03:32:22;;;;;;;12.90;11.10;;;7.40;99.90;;;;;;2070781;28;20045;-69
2022/11/13 03:33:23;;;;;;;13.50;10.98;;;7.40;99.90;;;;;;2070795;28;20517;-69
2022/11/13 03:34:24;;;;;;;13.27;11.57;;;7.40;99.90;;;;;;2068233;28;20084;-69
2022/11/13 03:35:25;;;;;;;13.90;11.57;;;7.40;99.90;;;;;;2070583;28;20030;-69
2022/11/13 03:36:25;;;;;;;14.30;10.98;;;7.40;99.90;;;;;;2070816;28;20068;-69
2022/11/13 03:37:26;;;;;;;16.48;11.73;;;7.40;99.90;;;;;;2069547;28;20104;-69
2022/11/13 03:38:26;;;;;;;14.40;11.38;;;7.40;99.90;;;;;;2069283;28;20502;-69
2022/11/13 03:39:27;;;;;;;13.68;10.93;;;7.40;99.90;;;;;;2068965;28;20486;-69
2022/11/13 03:40:27;;;;;;;14.05;11.38;;;7.40;99.90;;;;;;2070262;28;20026;-69
2022/11/13 03:41:28;;;;;;;15.45;11.38;;;7.30;99.90;;;;;;2069615;28;20029;-69
2022/11/13 03:42:28;;;;;;;14.90;11.07;;;7.30;99.90;;;;;;2068248;28;20030;-69
2022/11/13 03:43:29;;;;;;;12.68;11.10;;;7.30;99.90;;;;;;2070663;28;20022;-69
2022/11/13 03:44:30;;;;;;;12.50;10.65;;;7.30;99.90;;;;;;2070944;28;20049;-69
2022/11/13 03:45:31;;;;;;;16.02;12.10;;;7.30;99.90;;;;;;2069157;28;20557;-69
2022/11/13 03:46:31;;;;;;;13.52;11.32;;;7.30;99.90;;;;;;2071291;28;20447;-69
2022/11/13 03:47:32;;;;;;;13.13;11.73;;;7.30;99.90;;;;;;2070732;28;20026;-69
2022/11/13 03:48:32;;;;;;;13.00;10.75;;;7.30;99.90;;;;;;2069094;28;20045;-69
2022/11/13 03:49:33;;;;;;;13.55;11.60;;;7.30;99.90;;;;;;2069627;28;20058;-69
2022/11/13 03:50:34;;;;;;;12.40;10.63;;;7.30;99.90;;;;;;2070534;28;20478;-69
2022/11/13 03:51:34;;;;;;;13.30;10.45;;;7.20;99.90;;;;;;2070208;28;20477;-69
2022/11/13 03:52:35;;;;;;;13.40;11.75;;;7.20;99.90;;;;;;2069780;28;20065;-69
2022/11/13 03:53:35;;;;;;;12.50;10.15;;;7.20;99.90;;;;;;2070849;28;20022;-69
2022/11/13 03:54:36;;;;;;;13.25;10.65;;;7.20;99.90;;;;;;2070012;28;20048;-69
2022/11/13 03:55:37;;;;;;;12.80;10.57;;;7.20;99.90;;;;;;2069187;28;20466;-69
2022/11/13 03:56:37;;;;;;;12.55;10.50;;;7.20;99.90;;;;;;2068848;28;20041;-69
2022/11/13 03:57:38;;;;;;;13.32;11.02;;;7.20;99.90;;;;;;2066976;28;20097;-69
2022/11/13 03:58:38;;;;;;;11.70;10.45;;;7.10;99.90;;;;;;2070012;28;20032;-69
2022/11/13 03:59:38;;;;;;;12.80;10.57;;;7.20;99.90;;;;;;2069443;28;20154;-69
2022/11/13 04:00:40;;;;;;;11.60;10.20;;;7.10;99.90;;;;;;2068522;28;20109;-69
2022/11/13 04:01:40;;;;;;;11.63;10.43;;;7.10;99.90;;;;;;2070181;28;20034;-69
2022/11/13 04:02:41;;;;;;;13.93;10.70;;;7.10;99.90;;;;;;2069988;28;20030;-69
2022/11/13 04:03:42;;;;;;;17.00;11.10;;;7.10;99.90;;;;;;2069262;28;20079;-69
2022/11/13 04:04:43;;;;;;;12.35;10.07;;;7.10;99.90;;;;;;2070989;28;20470;-69
2022/11/13 04:05:44;;;;;;;11.18;9.38;;;7.10;99.90;;;;;;2069340;28;20022;-69
2022/11/13 04:06:44;;;;;;;11.70;10.45;;;7.10;99.90;;;;;;2071519;28;20510;-69
2022/11/13 04:07:45;;;;;;;11.48;10.27;;;7.10;99.90;;;;;;2070016;28;20038;-69
2022/11/13 04:08:45;;;;;;;12.07;9.80;;;7.10;99.90;;;;;;2070297;28;20680;-69
2022/11/13 04:09:46;;;;;;;12.35;10.88;;;7.00;99.90;;;;;;2070382;28;20033;-69
2022/11/13 04:10:46;;;;;;;11.38;10.18;;;7.00;99.90;;;;;;2070955;28;20034;-69
2022/11/13 04:11:47;;;;;;;12.18;10.88;;;7.00;99.90;;;;;;2067112;28;20037;-69
2022/11/13 04:12:47;;;;;;;16.45;10.60;;;7.00;99.90;;;;;;2069487;28;20140;-69
2022/11/13 04:13:48;;;;;;;11.95;10.52;;;7.00;99.90;;;;;;2068715;28;20029;-69
2022/11/13 04:14:48;;;;;;;12.55;11.02;;;7.00;99.90;;;;;;2069748;28;20022;-69
2022/11/13 04:15:49;;;;;;;11.75;9.35;;;7.00;99.90;;;;;;2070990;28;20034;-69
2022/11/13 04:16:49;;;;;;;12.63;10.00;;;7.00;99.90;;;;;;2069018;28;20465;-69
2022/11/13 04:17:50;;;;;;;12.63;10.13;;;7.00;99.90;;;;;;2069085;28;20037;-69
2022/11/13 04:18:50;;;;;;;13.43;10.00;;;6.90;99.90;;;;;;2070433;28;20041;-69
2022/11/13 04:19:51;;;;;;;14.85;10.60;;;6.90;99.90;;;;;;2068655;28;20103;-69
2022/11/13 04:20:57;;;;;;;12.93;9.93;;;7.00;99.90;;;;;;2071172;28;20025;-69
2022/11/13 04:21:58;;;;;;;14.30;10.52;;;6.90;99.90;;;;;;2069873;28;20026;-69
2022/11/13 04:22:58;;;;;;;12.65;10.55;;;6.90;99.90;;;;;;2068692;28;20022;-69
2022/11/13 04:23:59;;;;;;;11.70;10.05;;;6.90;99.90;;;;;;2070034;28;20403;-69
2022/11/13 04:24:59;;;;;;;16.17;10.95;;;6.90;99.90;;;;;;2069952;28;20033;-69
2022/11/13 04:26:00;;;;;;;11.52;10.15;;;6.90;99.90;;;;;;2067302;28;20026;-69
2022/11/13 04:27:00;;;;;;;13.95;10.65;;;6.90;99.90;;;;;;2070920;28;20034;-69
2022/11/13 04:28:01;;;;;;;12.80;10.45;;;6.90;99.90;;;;;;2066669;28;20106;-69
2022/11/13 04:29:01;;;;;;;12.80;10.32;;;6.80;99.90;;;;;;2065131;28;20034;-69
2022/11/13 04:30:03;;;;;;;11.60;10.13;;;6.80;99.90;;;;;;2066488;28;20015;-69
2022/11/13 04:31:04;;;;;;;12.15;9.55;;;6.80;99.90;;;;;;2068313;28;20382;-69
2022/11/13 04:32:05;;;;;;;14.43;10.07;;;6.80;99.90;;;;;;2067123;28;20037;-69
2022/11/13 04:33:06;;;;;;;10.75;9.43;;;6.80;99.90;;;;;;2066286;28;20791;-69
2022/11/13 04:34:07;;;;;;;14.00;10.57;;;6.80;99.90;;;;;;2069302;28;20041;-69
2022/11/13 04:35:08;;;;;;;12.07;9.68;;;6.80;99.90;;;;;;2069610;28;20554;-69
2022/11/13 04:36:08;;;;;;;11.05;9.65;;;6.80;99.90;;;;;;2069299;28;20438;-69
2022/11/13 04:37:09;;;;;;;11.30;9.70;;;6.80;99.90;;;;;;2069825;28;20026;-69
2022/11/13 04:38:11;;;;;;;11.40;10.00;;;6.80;99.90;;;;;;2067560;28;20032;-69
2022/11/13 04:39:11;;;;;;;11.13;9.45;;;6.80;99.90;;;;;;2067464;28;20046;-69
2022/11/13 04:40:12;;;;;;;12.27;9.75;;;6.70;99.90;;;;;;2070229;28;20071;-69
2022/11/13 04:42:50;;;;;;;15.63;9.63;;;6.80;99.90;;;;;;2065807;28;20105;-69
2022/11/13 04:43:50;;;;;;;12.20;9.85;;;6.70;99.90;;;;;;2070116;28;20021;-69
2022/11/13 04:44:51;;;;;;;14.43;9.65;;;6.70;99.90;;;;;;2069146;28;20080;-69
2022/11/13 04:45:51;;;;;;;11.15;9.90;;;6.70;99.90;;;;;;2068039;28;20086;-69
2022/11/13 04:46:52;;;;;;;13.43;9.52;;;6.70;99.90;;;;;;2070381;28;20028;-69
2022/11/13 04:47:53;;;;;;;12.05;9.52;;;6.70;99.90;;;;;;2071240;28;20457;-69
2022/11/13 04:48:53;;;;;;;13.35;9.88;;;6.70;99.90;;;;;;2068151;28;20038;-69
2022/11/13 04:49:54;;;;;;;10.70;8.65;;;6.70;99.90;;;;;;2070099;28;21003;-69
2022/11/13 04:50:54;;;;;;;10.30;8.38;;;6.70;99.90;;;;;;2067847;28;20145;-69
2022/11/13 04:51:55;;;;;;;12.93;9.25;;;6.70;99.90;;;;;;2069699;28;20034;-69
2022/11/13 04:52:55;;;;;;;12.30;9.32;;;6.70;99.90;;;;;;2070629;28;20058;-69
2022/11/13 04:53:56;;;;;;;9.88;8.73;;;6.60;99.90;;;;;;2068666;28;20022;-69
2022/11/13 04:54:56;;;;;;;12.32;9.73;;;6.70;99.90;;;;;;2068788;28;20112;-69
2022/11/13 04:55:57;;;;;;;11.88;9.80;;;6.60;99.90;;;;;;2068763;28;20018;-69
2022/11/13 04:56:57;;;;;;;12.55;9.13;;;6.60;99.90;;;;;;2069583;28;20026;-69
2022/11/13 04:57:58;;;;;;;10.63;8.95;;;6.60;99.90;;;;;;2070311;28;20101;-69
2022/11/13 04:58:58;;;;;;;10.65;9.55;;;6.60;99.90;;;;;;2069500;28;20097;-69
2022/11/13 04:59:59;;;;;;;11.80;9.38;;;6.60;99.90;;;;;;2068846;28;20411;-69
2022/11/13 05:01:00;;;;;;;9.73;8.48;;;6.60;99.90;;;;;;2069562;28;20032;-69
2022/11/13 05:02:00;;;;;;;13.32;9.05;;;6.60;99.90;;;;;;2068007;28;20041;-69
2022/11/13 05:03:01;;;;;;;11.35;8.38;;;6.60;99.90;;;;;;2067821;28;20014;-69
2022/11/13 05:04:02;;;;;;;10.93;9.02;;;6.60;99.90;;;;;;2068764;28;20026;-69
2022/11/13 05:05:03;;;;;;;9.90;8.55;;;6.60;99.90;;;;;;2070323;28;20125;-69
2022/11/13 05:06:06;;;;;;;11.75;9.63;;;6.60;99.90;;;;;;2070979;28;20018;-69
2022/11/13 05:07:06;;;;;;;10.90;8.63;;;6.60;99.90;;;;;;2069859;28;20022;-69
2022/11/13 05:08:07;;;;;;;11.50;9.45;;;6.50;99.90;;;;;;2069111;28;20019;-69
2022/11/13 05:09:09;;;;;;;11.75;8.40;;;6.50;99.90;;;;;;2067980;28;20077;-69
2022/11/13 05:10:10;;;;;;;11.75;8.90;;;6.50;99.90;;;;;;2069759;28;20144;-69
2022/11/13 05:11:10;;;;;;;10.55;7.90;;;6.50;99.90;;;;;;2070327;28;20096;-69
2022/11/13 05:12:11;;;;;;;9.93;8.73;;;6.50;99.90;;;;;;2069608;28;20034;-69
2022/11/13 05:13:11;;;;;;;9.77;8.15;;;6.50;99.90;;;;;;2067710;28;20022;-69
2022/11/13 05:14:12;;;;;;;10.50;8.88;;;6.50;99.90;;;;;;2068461;28;20131;-69
2022/11/13 05:15:12;;;;;;;9.68;8.35;;;6.50;99.90;;;;;;2069839;28;20025;-69
2022/11/13 05:16:14;;;;;;;8.95;7.97;;;6.50;99.90;;;;;;2069437;28;20026;-69
2022/11/13 05:17:14;;;;;;;9.77;8.27;;;6.50;99.90;;;;;;2069543;28;20025;-69
2022/11/13 05:18:15;;;;;;;9.55;8.43;;;6.50;99.90;;;;;;2068670;28;20793;-69
2022/11/13 05:19:16;;;;;;;9.60;8.57;;;6.50;99.90;;;;;;2069496;28;20635;-69
2022/11/13 05:20:16;;;;;;;9.75;8.27;;;6.50;99.90;;;;;;2069865;28;20105;-69